sensor_id;sensor_type;location;lat;lon;timestamp;pressure;altitude;pressure_sealevel;temperature;humidity
73551;BME280;61816;53.582;10.096;2022-12-18T00:01:39;102678.78;;;-5.25;100.00
73551;BME280;61816;53.582;10.096;2022-12-18T00:04:07;102683.22;;;-5.29;100.00
73551;BME280;61816;53.582;10.096;2022-12-18T00:06:34;102684.03;;;-5.19;100.00
73551;BME280;61816;53.582;10.096;2022-12-18T00:09:00;102691.97;;;-5.24;100.00
73551;BME280;61816;53.582;10.096;2022-12-18T00:11:28;102678.06;;;-5.41;100.00
73551;BME280;61816;53.582;10.096;2022-12-18T00:13:56;102671.88;;;-5.43;100.00
73551;BME280;61816;53.582;10.096;2022-12-18T00:16:23;102662.25;;;-5.47;100.00
73551;BME280;61816;53.582;10.096;2022-12-18T00:18:51;102666.72;;;-5.57;100.00
73551;BME280;61816;53.582;10.096;2022-12-18T00:21:18;102671.16;;;-5.60;100.00
73551;BME280;61816;53.582;10.096;2022-12-18T00:23:44;102679.94;;;-5.61;100.00
73551;BME280;61816;53.582;10.096;2022-12-18T00:26:15;102678.19;;;-5.62;100.00
73551;BME280;61816;53.582;10.096;2022-12-18T00:28:42;102688.66;;;-5.50;100.00
73551;BME280;61816;53.582;10.096;2022-12-18T00:31:10;102694.06;;;-5.65;100.00
73551;BME280;61816;53.582;10.096;2022-12-18T00:33:37;102694.09;;;-5.71;100.00
73551;BME280;61816;53.582;10.096;2022-12-18T00:36:09;102702.91;;;-5.72;100.00
73551;BME280;61816;53.582;10.096;2022-12-18T00:38:35;102702.91;;;-5.72;100.00
73551;BME280;61816;53.582;10.096;2022-12-18T00:41:01;102708.09;;;-5.63;100.00
73551;BME280;61816;53.582;10.096;2022-12-18T00:43:27;102706.41;;;-5.70;100.00
73551;BME280;61816;53.582;10.096;2022-12-18T00:45:52;102709.94;;;-5.71;100.00
73551;BME280;61816;53.582;10.096;2022-12-18T00:48:18;102698.50;;;-5.72;100.00
73551;BME280;61816;53.582;10.096;2022-12-18T00:50:43;102704.69;;;-5.79;100.00
73551;BME280;61816;53.582;10.096;2022-12-18T00:53:09;102694.13;;;-5.81;100.00
73551;BME280;61816;53.582;10.096;2022-12-18T00:55:34;102688.88;;;-5.84;100.00
73551;BME280;61816;53.582;10.096;2022-12-18T00:58:00;102685.38;;;-5.80;100.00
73551;BME280;61816;53.582;10.096;2022-12-18T01:00:25;102690.59;;;-5.74;100.00
73551;BME280;61816;53.582;10.096;2022-12-18T01:02:50;102698.56;;;-5.83;100.00
73551;BME280;61816;53.582;10.096;2022-12-18T01:05:16;102693.28;;;-5.87;100.00
73551;BME280;61816;53.582;10.096;2022-12-18T01:07:41;102696.00;;;-5.92;100.00
73551;BME280;61816;53.582;10.096;2022-12-18T01:10:10;102703.03;;;-5.91;100.00
73551;BME280;61816;53.582;10.096;2022-12-18T01:12:36;102704.72;;;-5.85;100.00
73551;BME280;61816;53.582;10.096;2022-12-18T01:15:02;102715.22;;;-5.78;100.00
73551;BME280;61816;53.582;10.096;2022-12-18T01:17:28;102718.75;;;-5.79;100.00
73551;BME280;61816;53.582;10.096;2022-12-18T01:19:53;102708.25;;;-5.88;100.00
73551;BME280;61816;53.582;10.096;2022-12-18T01:22:18;102718.84;;;-5.91;100.00
73551;BME280;61816;53.582;10.096;2022-12-18T01:24:44;102708.31;;;-5.94;100.00
73551;BME280;61816;53.582;10.096;2022-12-18T01:27:09;102713.59;;;-5.91;100.00
73551;BME280;61816;53.582;10.096;2022-12-18T01:29:34;102705.72;;;-5.97;100.00
73551;BME280;61816;53.582;10.096;2022-12-18T01:32:00;102705.59;;;-5.85;100.00
73551;BME280;61816;53.582;10.096;2022-12-18T01:34:25;102705.59;;;-5.88;100.00
73551;BME280;61816;53.582;10.096;2022-12-18T01:36:50;102701.28;;;-5.92;100.00
73551;BME280;61816;53.582;10.096;2022-12-18T01:39:18;102701.28;;;-5.95;100.00
73551;BME280;61816;53.582;10.096;2022-12-18T01:41:45;102706.59;;;-6.01;100.00
73551;BME280;61816;53.582;10.096;2022-12-18T01:47:38;102699.56;;;-6.02;100.00
73551;BME280;61816;53.582;10.096;2022-12-18T01:50:34;102718.09;;;-6.13;100.00
73551;BME280;61816;53.582;10.096;2022-12-18T01:53:13;102718.09;;;-6.13;100.00
73551;BME280;61816;53.582;10.096;2022-12-18T01:55:43;102710.16;;;-6.08;100.00
73551;BME280;61816;53.582;10.096;2022-12-18T01:58:13;102724.22;;;-6.09;100.00
73551;BME280;61816;53.582;10.096;2022-12-18T02:00:38;102717.22;;;-6.16;100.00
73551;BME280;61816;53.582;10.096;2022-12-18T02:03:04;102715.44;;;-6.11;100.00
73551;BME280;61816;53.582;10.096;2022-12-18T02:06:07;102716.31;;;-6.09;100.00
73551;BME280;61816;53.582;10.096;2022-12-18T02:11:16;102722.53;;;-6.19;100.00
73551;BME280;61816;53.582;10.096;2022-12-18T02:28:00;102729.53;;;-6.12;100.00
73551;BME280;61816;53.582;10.096;2022-12-18T02:30:29;102731.25;;;-6.14;100.00
73551;BME280;61816;53.582;10.096;2022-12-18T02:32:57;102738.28;;;-6.10;100.00
73551;BME280;61816;53.582;10.096;2022-12-18T02:39:05;102732.97;;;-6.01;100.00
73551;BME280;61816;53.582;10.096;2022-12-18T02:41:32;102742.53;;;-5.88;100.00
73551;BME280;61816;53.582;10.096;2022-12-18T02:44:01;102741.81;;;-6.14;100.00
73551;BME280;61816;53.582;10.096;2022-12-18T02:46:33;102740.03;;;-6.06;100.00
73551;BME280;61816;53.582;10.096;2022-12-18T02:49:07;102740.91;;;-6.09;100.00
73551;BME280;61816;53.582;10.096;2022-12-18T02:51:47;102747.09;;;-6.11;100.00
73551;BME280;61816;53.582;10.096;2022-12-18T02:54:36;102737.44;;;-6.18;100.00
73551;BME280;61816;53.582;10.096;2022-12-18T02:57:13;102739.13;;;-6.07;100.00
73551;BME280;61816;53.582;10.096;2022-12-18T02:59:49;102758.50;;;-6.09;100.00
73551;BME280;61816;53.582;10.096;2022-12-18T03:05:07;102761.13;;;-6.06;100.00
73551;BME280;61816;53.582;10.096;2022-12-18T03:07:43;102758.44;;;-5.95;100.00
73551;BME280;61816;53.582;10.096;2022-12-18T03:10:14;102763.72;;;-6.00;100.00
73551;BME280;61816;53.582;10.096;2022-12-18T03:12:54;102761.16;;;-6.12;100.00
73551;BME280;61816;53.582;10.096;2022-12-18T03:15:25;102759.41;;;-6.16;100.00
73551;BME280;61816;53.582;10.096;2022-12-18T03:18:01;102753.25;;;-6.18;100.00
73551;BME280;61816;53.582;10.096;2022-12-18T03:20:31;102755.00;;;-6.20;100.00
73551;BME280;61816;53.582;10.096;2022-12-18T03:23:11;102757.63;;;-6.14;100.00
73551;BME280;61816;53.582;10.096;2022-12-18T03:25:41;102748.03;;;-6.34;100.00
73551;BME280;61816;53.582;10.096;2022-12-18T03:28:12;102746.28;;;-6.38;100.00
73551;BME280;61816;53.582;10.096;2022-12-18T03:30:40;102751.59;;;-6.44;100.00
73551;BME280;61816;53.582;10.096;2022-12-18T03:33:18;102755.97;;;-6.49;100.00
73551;BME280;61816;53.582;10.096;2022-12-18T03:35:45;102757.75;;;-6.57;100.00
73551;BME280;61816;53.582;10.096;2022-12-18T03:38:11;102759.47;;;-6.47;100.00
73551;BME280;61816;53.582;10.096;2022-12-18T03:40:45;102751.59;;;-6.53;100.00
73551;BME280;61816;53.582;10.096;2022-12-18T03:43:20;102761.25;;;-6.43;100.00
73551;BME280;61816;53.582;10.096;2022-12-18T03:46:09;102755.97;;;-6.43;100.00
73551;BME280;61816;53.582;10.096;2022-12-18T03:48:44;102752.41;;;-6.23;100.00
73551;BME280;61816;53.582;10.096;2022-12-18T03:51:50;102758.59;;;-6.32;100.00
73551;BME280;61816;53.582;10.096;2022-12-18T03:54:18;102752.41;;;-6.33;100.00
73551;BME280;61816;53.582;10.096;2022-12-18T03:56:47;102748.94;;;-6.47;100.00
73551;BME280;61816;53.582;10.096;2022-12-18T03:59:15;102748.94;;;-6.41;100.00
73551;BME280;61816;53.582;10.096;2022-12-18T04:01:46;102743.63;;;-6.35;100.00
73551;BME280;61816;53.582;10.096;2022-12-18T04:04:14;102739.28;;;-6.46;100.00
73551;BME280;61816;53.582;10.096;2022-12-18T04:06:41;102743.72;;;-6.62;100.00
73551;BME280;61816;53.582;10.096;2022-12-18T04:09:08;102741.94;;;-6.54;100.00
73551;BME280;61816;53.582;10.096;2022-12-18T04:11:33;102746.34;;;-6.61;100.00
73551;BME280;61816;53.582;10.096;2022-12-18T04:13:59;102752.47;;;-6.45;100.00
73551;BME280;61816;53.582;10.096;2022-12-18T04:16:25;102746.34;;;-6.51;100.00
73551;BME280;61816;53.582;10.096;2022-12-18T04:18:51;102748.97;;;-6.59;100.00
73551;BME280;61816;53.582;10.096;2022-12-18T04:21:16;102755.97;;;-6.44;100.00
73551;BME280;61816;53.582;10.096;2022-12-18T04:23:42;102741.91;;;-6.48;100.00
73551;BME280;61816;53.582;10.096;2022-12-18T04:26:07;102745.44;;;-6.49;100.00
73551;BME280;61816;53.582;10.096;2022-12-18T04:28:33;102747.22;;;-6.62;100.00
73551;BME280;61816;53.582;10.096;2022-12-18T04:30:58;102752.50;;;-6.63;100.00
73551;BME280;61816;53.582;10.096;2022-12-18T04:33:27;102757.75;;;-6.60;100.00
73551;BME280;61816;53.582;10.096;2022-12-18T04:35:52;102756.00;;;-6.67;100.00
73551;BME280;61816;53.582;10.096;2022-12-18T04:38:17;102750.75;;;-6.79;100.00
73551;BME280;61816;53.582;10.096;2022-12-18T04:40:43;102754.28;;;-6.88;100.00
73551;BME280;61816;53.582;10.096;2022-12-18T04:43:08;102761.28;;;-6.79;100.00
73551;BME280;61816;53.582;10.096;2022-12-18T04:45:34;102743.75;;;-6.84;100.00
73551;BME280;61816;53.582;10.096;2022-12-18T04:48:00;102747.25;;;-6.78;100.00
73551;BME280;61816;53.582;10.096;2022-12-18T04:50:26;102742.88;;;-6.87;100.00
73551;BME280;61816;53.582;10.096;2022-12-18T04:52:52;102747.25;;;-6.88;100.00
73551;BME280;61816;53.582;10.096;2022-12-18T04:55:17;102750.78;;;-6.82;100.00
73551;BME280;61816;53.582;10.096;2022-12-18T04:57:42;102753.38;;;-6.73;100.00
73551;BME280;61816;53.582;10.096;2022-12-18T05:00:08;102763.03;;;-6.63;100.00
73551;BME280;61816;53.582;10.096;2022-12-18T05:02:34;102764.78;;;-6.56;100.00
73551;BME280;61816;53.582;10.096;2022-12-18T05:04:59;102762.16;;;-6.73;100.00
73551;BME280;61816;53.582;10.096;2022-12-18T05:07:25;102770.06;;;-6.68;100.00
73551;BME280;61816;53.582;10.096;2022-12-18T05:09:50;102775.28;;;-6.53;100.00
73551;BME280;61816;53.582;10.096;2022-12-18T05:12:15;102773.56;;;-6.54;100.00
73551;BME280;61816;53.582;10.096;2022-12-18T05:14:41;102780.56;;;-6.53;100.00
73551;BME280;61816;53.582;10.096;2022-12-18T05:17:06;102781.44;;;-6.42;100.00
73551;BME280;61816;53.582;10.096;2022-12-18T05:19:31;102777.09;;;-6.73;100.00
73551;BME280;61816;53.582;10.096;2022-12-18T05:21:57;102791.13;;;-6.65;100.00
73551;BME280;61816;53.582;10.096;2022-12-18T05:24:22;102787.63;;;-6.61;100.00
73551;BME280;61816;53.582;10.096;2022-12-18T05:26:48;102784.97;;;-6.72;100.00
73551;BME280;61816;53.582;10.096;2022-12-18T05:29:13;102789.38;;;-6.57;100.00
73551;BME280;61816;53.582;10.096;2022-12-18T05:31:38;102785.84;;;-6.65;100.00
73551;BME280;61816;53.582;10.096;2022-12-18T05:34:04;102785.88;;;-6.68;100.00
73551;BME280;61816;53.582;10.096;2022-12-18T05:36:30;102785.84;;;-6.67;100.00
73551;BME280;61816;53.582;10.096;2022-12-18T05:38:55;102796.38;;;-6.53;100.00
73551;BME280;61816;53.582;10.096;2022-12-18T05:41:21;102794.63;;;-6.72;100.00
73551;BME280;61816;53.582;10.096;2022-12-18T05:43:46;102799.03;;;-6.79;100.00
73551;BME280;61816;53.582;10.096;2022-12-18T05:46:14;102801.69;;;-6.71;100.00
73551;BME280;61816;53.582;10.096;2022-12-18T05:48:40;102811.34;;;-6.75;100.00
73551;BME280;61816;53.582;10.096;2022-12-18T05:51:11;102803.44;;;-6.58;100.00
73551;BME280;61816;53.582;10.096;2022-12-18T05:53:37;102802.53;;;-6.54;100.00
73551;BME280;61816;53.582;10.096;2022-12-18T05:56:04;102799.03;;;-6.67;100.00
73551;BME280;61816;53.582;10.096;2022-12-18T05:58:31;102799.03;;;-6.67;100.00
73551;BME280;61816;53.582;10.096;2022-12-18T06:00:57;102812.19;;;-6.65;100.00
73551;BME280;61816;53.582;10.096;2022-12-18T06:03:23;102798.16;;;-6.73;100.00
73551;BME280;61816;53.582;10.096;2022-12-18T06:05:48;102794.66;;;-6.85;100.00
73551;BME280;61816;53.582;10.096;2022-12-18T06:08:14;102785.00;;;-6.89;100.00
73551;BME280;61816;53.582;10.096;2022-12-18T06:10:40;102793.78;;;-6.90;100.00
73551;BME280;61816;53.582;10.096;2022-12-18T06:13:06;102806.06;;;-6.95;100.00
73551;BME280;61816;53.582;10.096;2022-12-18T06:15:32;102810.47;;;-6.91;100.00
73551;BME280;61816;53.582;10.096;2022-12-18T06:17:57;102813.97;;;-6.79;100.00
73551;BME280;61816;53.582;10.096;2022-12-18T06:20:23;102817.50;;;-6.84;100.00
73551;BME280;61816;53.582;10.096;2022-12-18T06:22:48;102819.22;;;-6.79;100.00
73551;BME280;61816;53.582;10.096;2022-12-18T06:25:14;102814.84;;;-6.87;100.00
73551;BME280;61816;53.582;10.096;2022-12-18T06:27:39;102820.13;;;-6.77;100.00
73551;BME280;61816;53.582;10.096;2022-12-18T06:30:05;102821.88;;;-6.82;100.00
73551;BME280;61816;53.582;10.096;2022-12-18T06:32:31;102826.25;;;-6.78;100.00
73551;BME280;61816;53.582;10.096;2022-12-18T06:34:57;102824.50;;;-6.70;100.00
73551;BME280;61816;53.582;10.096;2022-12-18T06:37:22;102822.75;;;-6.80;100.00
73551;BME280;61816;53.582;10.096;2022-12-18T06:39:51;102831.53;;;-6.88;100.00
73551;BME280;61816;53.582;10.096;2022-12-18T06:42:16;102833.28;;;-6.87;100.00
73551;BME280;61816;53.582;10.096;2022-12-18T06:44:42;102828.03;;;-6.84;100.00
73551;BME280;61816;53.582;10.096;2022-12-18T06:47:07;102835.03;;;-6.79;100.00
73551;BME280;61816;53.582;10.096;2022-12-18T06:49:32;102822.75;;;-6.96;100.00
73551;BME280;61816;53.582;10.096;2022-12-18T06:51:58;102828.00;;;-6.96;100.00
73551;BME280;61816;53.582;10.096;2022-12-18T06:54:23;102832.41;;;-7.02;100.00
73551;BME280;61816;53.582;10.096;2022-12-18T06:56:48;102839.41;;;-7.04;100.00
73551;BME280;61816;53.582;10.096;2022-12-18T06:59:14;102829.75;;;-7.01;100.00
73551;BME280;61816;53.582;10.096;2022-12-18T07:01:40;102830.63;;;-7.13;100.00
73551;BME280;61816;53.582;10.096;2022-12-18T07:04:05;102824.50;;;-7.04;100.00
73551;BME280;61816;53.582;10.096;2022-12-18T07:06:30;102828.00;;;-7.17;100.00
73551;BME280;61816;53.582;10.096;2022-12-18T07:08:56;102829.75;;;-7.22;100.00
73551;BME280;61816;53.582;10.096;2022-12-18T07:11:21;102813.94;;;-7.13;100.00
73551;BME280;61816;53.582;10.096;2022-12-18T07:13:47;102823.59;;;-7.14;100.00
73551;BME280;61816;53.582;10.096;2022-12-18T07:16:17;102830.63;;;-7.16;100.00
73551;BME280;61816;53.582;10.096;2022-12-18T07:18:43;102837.66;;;-7.08;100.00
73551;BME280;61816;53.582;10.096;2022-12-18T07:21:11;102840.28;;;-6.98;100.00
73551;BME280;61816;53.582;10.096;2022-12-18T07:23:37;102838.56;;;-6.90;100.00
73551;BME280;61816;53.582;10.096;2022-12-18T07:26:06;102835.03;;;-7.01;100.00
73551;BME280;61816;53.582;10.096;2022-12-18T07:28:36;102842.06;;;-6.94;100.00
73551;BME280;61816;53.582;10.096;2022-12-18T07:31:09;102846.44;;;-6.88;100.00
73551;BME280;61816;53.582;10.096;2022-12-18T07:33:35;102853.47;;;-6.87;100.00
73551;BME280;61816;53.582;10.096;2022-12-18T07:36:05;102863.13;;;-6.88;100.00
73551;BME280;61816;53.582;10.096;2022-12-18T07:38:32;102859.59;;;-6.99;100.00
73551;BME280;61816;53.582;10.096;2022-12-18T07:41:07;102861.34;;;-6.98;100.00
73551;BME280;61816;53.582;10.096;2022-12-18T07:43:33;102857.84;;;-6.97;100.00
73551;BME280;61816;53.582;10.096;2022-12-18T07:45:59;102864.88;;;-6.96;100.00
73551;BME280;61816;53.582;10.096;2022-12-18T07:48:25;102870.16;;;-6.74;100.00
73551;BME280;61816;53.582;10.096;2022-12-18T07:50:50;102863.13;;;-6.97;100.00
73551;BME280;61816;53.582;10.096;2022-12-18T07:53:16;102875.41;;;-6.87;100.00
73551;BME280;61816;53.582;10.096;2022-12-18T07:55:41;102876.28;;;-6.95;100.00
73551;BME280;61816;53.582;10.096;2022-12-18T07:58:07;102873.66;;;-7.03;100.00
73551;BME280;61816;53.582;10.096;2022-12-18T08:00:33;102878.03;;;-6.91;100.00
73551;BME280;61816;53.582;10.096;2022-12-18T08:02:59;102878.94;;;-6.97;100.00
73551;BME280;61816;53.582;10.096;2022-12-18T08:05:24;102871.88;;;-7.07;100.00
73551;BME280;61816;53.582;10.096;2022-12-18T08:07:50;102866.63;;;-6.92;100.00
73551;BME280;61816;53.582;10.096;2022-12-18T08:10:15;102871.91;;;-6.82;100.00
73551;BME280;61816;53.582;10.096;2022-12-18T08:12:41;102866.66;;;-6.76;100.00
73551;BME280;61816;53.582;10.096;2022-12-18T08:15:07;102863.13;;;-6.72;100.00
73551;BME280;61816;53.582;10.096;2022-12-18T08:17:32;102864.00;;;-6.73;100.00
73551;BME280;61816;53.582;10.096;2022-12-18T08:19:58;102857.88;;;-6.81;100.00
73551;BME280;61816;53.582;10.096;2022-12-18T08:22:23;102857.00;;;-6.70;100.00
73551;BME280;61816;53.582;10.096;2022-12-18T08:24:48;102852.59;;;-6.54;100.00
73551;BME280;61816;53.582;10.096;2022-12-18T08:27:14;102862.28;;;-6.58;100.00
73551;BME280;61816;53.582;10.096;2022-12-18T08:29:39;102864.88;;;-6.47;100.00
73551;BME280;61816;53.582;10.096;2022-12-18T08:32:05;102859.63;;;-6.51;100.00
73551;BME280;61816;53.582;10.096;2022-12-18T08:34:30;102856.09;;;-6.40;100.00
73551;BME280;61816;53.582;10.096;2022-12-18T08:36:55;102852.59;;;-6.45;100.00
73551;BME280;61816;53.582;10.096;2022-12-18T08:39:21;102845.56;;;-6.43;100.00
73551;BME280;61816;53.582;10.096;2022-12-18T08:41:46;102852.59;;;-6.45;100.00
73551;BME280;61816;53.582;10.096;2022-12-18T08:44:32;102854.31;;;-6.10;100.00
73551;BME280;61816;53.582;10.096;2022-12-18T08:47:05;102857.81;;;-6.14;100.00
73551;BME280;61816;53.582;10.096;2022-12-18T08:49:30;102862.19;;;-6.01;100.00
73551;BME280;61816;53.582;10.096;2022-12-18T08:51:56;102859.47;;;-5.89;100.00
73551;BME280;61816;53.582;10.096;2022-12-18T08:54:25;102865.59;;;-5.76;100.00
73551;BME280;61816;53.582;10.096;2022-12-18T08:56:51;102862.03;;;-5.69;100.00
73551;BME280;61816;53.582;10.096;2022-12-18T08:59:17;102864.69;;;-5.64;99.99
73551;BME280;61816;53.582;10.096;2022-12-18T09:01:43;102861.16;;;-5.63;99.34
73551;BME280;61816;53.582;10.096;2022-12-18T09:04:09;102858.50;;;-5.54;99.53
73551;BME280;61816;53.582;10.096;2022-12-18T09:06:35;102849.63;;;-5.49;98.84
73551;BME280;61816;53.582;10.096;2022-12-18T09:09:00;102857.47;;;-5.35;98.19
73551;BME280;61816;53.582;10.096;2022-12-18T09:11:27;102861.88;;;-5.28;98.29
73551;BME280;61816;53.582;10.096;2022-12-18T09:13:53;102859.22;;;-5.25;98.00
73551;BME280;61816;53.582;10.096;2022-12-18T09:16:19;102856.56;;;-5.22;97.60
73551;BME280;61816;53.582;10.096;2022-12-18T09:18:45;102857.31;;;-5.04;97.31
73551;BME280;61816;53.582;10.096;2022-12-18T09:21:13;102856.38;;;-4.96;96.84
73551;BME280;61816;53.582;10.096;2022-12-18T09:23:39;102852.81;;;-4.87;96.48
73551;BME280;61816;53.582;10.096;2022-12-18T09:26:04;102846.63;;;-4.86;95.78
73551;BME280;61816;53.582;10.096;2022-12-18T09:28:30;102850.25;;;-5.02;96.05
73551;BME280;61816;53.582;10.096;2022-12-18T09:30:55;102855.38;;;-4.78;96.06
73551;BME280;61816;53.582;10.096;2022-12-18T09:33:20;102855.34;;;-4.75;95.88
73551;BME280;61816;53.582;10.096;2022-12-18T09:35:46;102843.84;;;-4.66;95.20
73551;BME280;61816;53.582;10.096;2022-12-18T09:38:14;102852.63;;;-4.66;94.77
73551;BME280;61816;53.582;10.096;2022-12-18T09:40:45;102856.97;;;-4.55;95.14
73551;BME280;61816;53.582;10.096;2022-12-18T09:43:23;102853.22;;;-4.33;93.82
73551;BME280;61816;53.582;10.096;2022-12-18T09:45:55;102854.88;;;-4.21;93.41
73551;BME280;61816;53.582;10.096;2022-12-18T09:48:23;102854.81;;;-4.14;93.83
73551;BME280;61816;53.582;10.096;2022-12-18T09:50:51;102853.81;;;-4.02;92.66
73551;BME280;61816;53.582;10.096;2022-12-18T09:53:22;102859.78;;;-3.83;92.37
73551;BME280;61816;53.582;10.096;2022-12-18T09:55:51;102857.06;;;-3.77;91.51
73551;BME280;61816;53.582;10.096;2022-12-18T09:58:28;102857.84;;;-3.72;91.34
73551;BME280;61816;53.582;10.096;2022-12-18T10:00:56;102863.16;;;-3.72;91.10
73551;BME280;61816;53.582;10.096;2022-12-18T10:03:21;102869.06;;;-3.48;90.62
73551;BME280;61816;53.582;10.096;2022-12-18T10:06:28;102854.00;;;-3.46;90.32
73551;BME280;61816;53.582;10.096;2022-12-18T10:09:16;102847.03;;;-3.53;90.19
73551;BME280;61816;53.582;10.096;2022-12-18T10:12:02;102852.66;;;-3.78;91.09
73551;BME280;61816;53.582;10.096;2022-12-18T10:14:36;102866.47;;;-3.51;91.08
73551;BME280;61816;53.582;10.096;2022-12-18T10:17:22;102854.28;;;-3.68;91.25
73551;BME280;61816;53.582;10.096;2022-12-18T10:19:54;102855.06;;;-3.60;90.16
73551;BME280;61816;53.582;10.096;2022-12-18T10:25:34;102860.28;;;-3.53;90.30
73551;BME280;61816;53.582;10.096;2022-12-18T10:28:13;102858.31;;;-3.39;89.47
73551;BME280;61816;53.582;10.096;2022-12-18T10:30:42;102863.88;;;-3.58;90.23
73551;BME280;61816;53.582;10.096;2022-12-18T10:33:13;102867.00;;;-3.25;89.76
73551;BME280;61816;53.582;10.096;2022-12-18T10:35:41;102868.06;;;-3.41;89.71
73551;BME280;61816;53.582;10.096;2022-12-18T10:43:24;102878.56;;;-3.32;90.06
73551;BME280;61816;53.582;10.096;2022-12-18T10:46:04;102868.13;;;-3.44;89.39
73551;BME280;61816;53.582;10.096;2022-12-18T10:51:05;102863.59;;;-3.36;89.67
73551;BME280;61816;53.582;10.096;2022-12-18T10:53:33;102852.72;;;-3.16;88.87
73551;BME280;61816;53.582;10.096;2022-12-18T10:55:59;102857.75;;;-2.96;89.06
73551;BME280;61816;53.582;10.096;2022-12-18T11:01:13;102838.19;;;-2.89;88.74
73551;BME280;61816;53.582;10.096;2022-12-18T11:03:47;102830.13;;;-2.80;87.90
73551;BME280;61816;53.582;10.096;2022-12-18T11:06:24;102839.78;;;-2.78;86.85
73551;BME280;61816;53.582;10.096;2022-12-18T11:09:01;102840.34;;;-2.59;87.74
73551;BME280;61816;53.582;10.096;2022-12-18T11:11:27;102845.66;;;-2.59;86.47
73551;BME280;61816;53.582;10.096;2022-12-18T11:14:01;102839.25;;;-2.46;85.94
73551;BME280;61816;53.582;10.096;2022-12-18T11:16:28;102847.25;;;-2.49;86.06
73551;BME280;61816;53.582;10.096;2022-12-18T11:21:41;102833.69;;;-2.32;85.13
73551;BME280;61816;53.582;10.096;2022-12-18T11:24:19;102846.22;;;-2.41;85.81
73551;BME280;61816;53.582;10.096;2022-12-18T11:26:45;102840.59;;;-2.23;85.42
73551;BME280;61816;53.582;10.096;2022-12-18T11:29:17;102837.28;;;-2.34;85.73
73551;BME280;61816;53.582;10.096;2022-12-18T11:31:43;102826.56;;;-2.28;84.51
73551;BME280;61816;53.582;10.096;2022-12-18T11:34:19;102817.47;;;-2.15;86.20
73551;BME280;61816;53.582;10.096;2022-12-18T11:36:48;102821.19;;;-2.25;86.38
73551;BME280;61816;53.582;10.096;2022-12-18T11:39:37;102826.69;;;-2.34;85.82
73551;BME280;61816;53.582;10.096;2022-12-18T11:42:16;102820.34;;;-2.27;85.63
73551;BME280;61816;53.582;10.096;2022-12-18T11:44:57;102820.47;;;-2.33;86.10
73551;BME280;61816;53.582;10.096;2022-12-18T11:47:54;102821.75;;;-2.08;85.65
73551;BME280;61816;53.582;10.096;2022-12-18T11:50:26;102818.19;;;-2.07;85.46
73551;BME280;61816;53.582;10.096;2022-12-18T11:52:53;102816.06;;;-1.89;84.77
73551;BME280;61816;53.582;10.096;2022-12-18T11:55:38;102808.59;;;-1.69;84.40
73551;BME280;61816;53.582;10.096;2022-12-18T12:03:43;102801.13;;;-1.52;82.63
73551;BME280;61816;53.582;10.096;2022-12-18T12:06:35;102790.72;;;-1.61;83.24
73551;BME280;61816;53.582;10.096;2022-12-18T12:12:05;102773.22;;;-1.71;83.39
73551;BME280;61816;53.582;10.096;2022-12-18T12:20:11;102766.75;;;-1.59;83.42
73551;BME280;61816;53.582;10.096;2022-12-18T12:22:52;102769.84;;;-1.79;83.89
73551;BME280;61816;53.582;10.096;2022-12-18T12:25:30;102767.84;;;-1.68;83.65
73551;BME280;61816;53.582;10.096;2022-12-18T12:28:35;102759.50;;;-1.92;84.07
73551;BME280;61816;53.582;10.096;2022-12-18T12:31:24;102759.50;;;-1.92;84.93
73551;BME280;61816;53.582;10.096;2022-12-18T12:34:04;102751.19;;;-1.75;84.18
73551;BME280;61816;53.582;10.096;2022-12-18T12:39:31;102746.09;;;-1.85;84.40
73551;BME280;61816;53.582;10.096;2022-12-18T12:41:58;102734.44;;;-1.78;84.15
73551;BME280;61816;53.582;10.096;2022-12-18T12:44:54;102731.72;;;-1.75;84.14
73551;BME280;61816;53.582;10.096;2022-12-18T12:47:24;102728.19;;;-1.76;84.64
73551;BME280;61816;53.582;10.096;2022-12-18T12:49:51;102725.22;;;-1.62;84.62
73551;BME280;61816;53.582;10.096;2022-12-18T12:52:36;102709.78;;;-1.09;83.01
73551;BME280;61816;53.582;10.096;2022-12-18T12:55:14;102705.97;;;-0.99;81.84
73551;BME280;61816;53.582;10.096;2022-12-18T12:57:45;102702.00;;;-0.83;81.82
73551;BME280;61816;53.582;10.096;2022-12-18T13:00:16;102706.13;;;-1.05;81.50
73551;BME280;61816;53.582;10.096;2022-12-18T13:02:51;102710.38;;;-1.33;83.13
73551;BME280;61816;53.582;10.096;2022-12-18T13:08:08;102711.63;;;-1.48;83.21
73551;BME280;61816;53.582;10.096;2022-12-18T13:10:43;102703.69;;;-1.50;83.51
73551;BME280;61816;53.582;10.096;2022-12-18T13:13:10;102694.72;;;-1.46;83.39
73551;BME280;61816;53.582;10.096;2022-12-18T13:15:40;102698.22;;;-1.44;83.59
73551;BME280;61816;53.582;10.096;2022-12-18T13:20:36;102707.47;;;-1.60;83.58
73551;BME280;61816;53.582;10.096;2022-12-18T13:26:28;102709.88;;;-1.89;84.63
73551;BME280;61816;53.582;10.096;2022-12-18T13:31:11;102699.47;;;-1.99;85.39
73551;BME280;61816;53.582;10.096;2022-12-18T13:38:41;102694.53;;;-2.17;85.58
73551;BME280;61816;53.582;10.096;2022-12-18T13:43:49;102686.47;;;-2.11;85.86
73551;BME280;61816;53.582;10.096;2022-12-18T13:48:56;102683.81;;;-2.11;86.28
73551;BME280;61816;53.582;10.096;2022-12-18T13:51:23;102696.56;;;-2.28;86.78
73551;BME280;61816;53.582;10.096;2022-12-18T13:53:52;102701.91;;;-2.31;87.02
73551;BME280;61816;53.582;10.096;2022-12-18T13:56:29;102704.09;;;-2.52;87.04
73551;BME280;61816;53.582;10.096;2022-12-18T14:04:32;102710.69;;;-2.72;88.12
73551;BME280;61816;53.582;10.096;2022-12-18T14:07:17;102699.22;;;-2.73;88.98
73551;BME280;61816;53.582;10.096;2022-12-18T14:09:46;102700.13;;;-2.76;89.22
73551;BME280;61816;53.582;10.096;2022-12-18T14:12:21;102706.97;;;-2.64;89.30